Kettle Falls, Washington
Current Conditions -  °F | °C
As of 2:00 PM on Friday 19 Dec 2014 (Local Time) from CYCG Reporting Station
Haze Haze  
Wind Chill: 37°   Ceiling: 2200
Heat Index: 37°   Visibility: 5mi
Dew Point: 36°   Wind: 2mph
Humidity: 93%   Direction: 140°SE
Pressure: 29.88"   Gusts: NA
Location:  48.61°N, 118.06°W
Report Text: CYCG 192200Z 14002KT 5SM BR FEW003 SCT012 OVC022 03/02 A2988 RMK SF2SC2SC4 SLP134
Loading
Personal Weather Stations






























Interactive Weather Map New forecast layout! Learn more

10-Day Weather Forecast

Advertisements
Track Severe Weather on mobile